createdAt,value
2022-10-15T00:01:09.604Z,53.80
2022-10-15T00:04:02.969Z,53.80
2022-10-15T00:06:55.954Z,53.80
2022-10-15T00:09:49.106Z,53.80
2022-10-15T00:12:42.703Z,53.80
2022-10-15T00:15:37.197Z,53.80
2022-10-15T00:18:31.212Z,53.70
2022-10-15T00:21:24.035Z,53.70
2022-10-15T00:24:17.033Z,53.80
2022-10-15T00:27:09.683Z,53.70
2022-10-15T00:30:04.018Z,53.70
2022-10-15T00:32:56.865Z,53.70
2022-10-15T00:35:59.676Z,53.70
2022-10-15T00:38:53.580Z,53.70
2022-10-15T00:41:48.255Z,53.70
2022-10-15T00:44:53.711Z,53.70
2022-10-15T00:47:50.055Z,53.80
2022-10-15T00:50:43.461Z,53.70
2022-10-15T00:53:38.521Z,53.70
2022-10-15T00:56:33.922Z,53.70
2022-10-15T00:59:29.934Z,53.70
2022-10-15T01:02:23.539Z,53.80
2022-10-15T01:05:18.379Z,53.70
2022-10-15T01:08:11.445Z,53.80
2022-10-15T01:11:18.655Z,53.70
2022-10-15T01:14:28.106Z,53.70
2022-10-15T01:17:24.943Z,53.70
2022-10-15T01:20:52.742Z,53.70
2022-10-15T01:24:12.002Z,53.70
2022-10-15T01:27:24.064Z,53.70
2022-10-15T01:30:26.479Z,53.70
2022-10-15T01:33:28.007Z,53.70
2022-10-15T01:36:30.281Z,53.70
2022-10-15T01:39:28.815Z,53.70
2022-10-15T01:42:26.900Z,53.70
2022-10-15T01:45:25.340Z,53.70
2022-10-15T01:48:20.588Z,53.70
2022-10-15T01:51:17.894Z,53.70
2022-10-15T01:54:14.879Z,53.70
2022-10-15T01:57:08.638Z,53.70
2022-10-15T02:00:04.252Z,53.70
2022-10-15T02:03:01.428Z,53.70
2022-10-15T02:06:03.349Z,53.70
2022-10-15T02:09:08.054Z,53.70
2022-10-15T02:12:10.404Z,53.70
2022-10-15T02:15:11.343Z,53.70
2022-10-15T02:18:10.970Z,53.70
2022-10-15T02:21:11.029Z,53.70
2022-10-15T02:24:09.772Z,53.70
2022-10-15T02:27:05.101Z,53.70
2022-10-15T02:29:58.993Z,53.70
2022-10-15T02:32:56.154Z,53.70
2022-10-15T02:35:51.413Z,53.70
2022-10-15T02:38:46.983Z,53.70
2022-10-15T02:41:40.709Z,53.70
2022-10-15T02:44:34.991Z,53.70
2022-10-15T02:47:28.291Z,53.70
2022-10-15T02:50:21.259Z,53.70
2022-10-15T02:53:14.309Z,53.70
2022-10-15T02:56:08.606Z,53.70
2022-10-15T02:59:01.912Z,53.70
2022-10-15T03:01:55.183Z,53.60
2022-10-15T03:04:48.079Z,53.70
2022-10-15T03:07:41.335Z,53.60
2022-10-15T03:10:34.111Z,53.60
2022-10-15T03:13:28.624Z,53.60
2022-10-15T03:16:22.262Z,53.60
2022-10-15T03:19:15.325Z,53.60
2022-10-15T03:22:08.324Z,53.70
2022-10-15T03:25:00.953Z,53.70
2022-10-15T03:27:54.152Z,54.00
2022-10-15T03:30:48.075Z,53.70
2022-10-15T03:33:40.997Z,53.60
2022-10-15T03:36:34.250Z,53.60
2022-10-15T03:39:27.140Z,53.60
2022-10-15T03:42:20.502Z,53.70
2022-10-15T03:45:14.099Z,53.60
2022-10-15T03:48:08.838Z,53.70
2022-10-15T03:51:02.083Z,53.60
2022-10-15T03:53:55.077Z,53.70
2022-10-15T03:56:48.109Z,53.60
2022-10-15T03:59:40.826Z,53.70
2022-10-15T04:02:34.643Z,54.30
2022-10-15T04:05:29.725Z,53.60
2022-10-15T04:08:23.001Z,53.60
2022-10-15T04:11:16.234Z,53.60
2022-10-15T04:14:09.240Z,53.60
2022-10-15T04:17:02.224Z,53.90
2022-10-15T04:19:55.199Z,53.60
2022-10-15T04:22:49.310Z,53.60
2022-10-15T04:25:42.607Z,53.60
2022-10-15T04:28:36.125Z,53.60
2022-10-15T04:31:29.146Z,53.60
2022-10-15T04:34:22.191Z,53.50
2022-10-15T04:37:15.257Z,53.50
2022-10-15T04:40:12.239Z,53.60
2022-10-15T04:43:04.908Z,53.60
2022-10-15T04:45:59.696Z,53.60
2022-10-15T04:48:57.512Z,53.60
2022-10-15T04:51:50.471Z,53.60
2022-10-15T04:54:42.804Z,53.50
2022-10-15T04:57:37.295Z,53.60
2022-10-15T05:00:30.225Z,53.50
2022-10-15T05:03:23.439Z,53.60
2022-10-15T05:06:18.687Z,53.50
2022-10-15T05:09:12.665Z,53.50
2022-10-15T05:12:06.505Z,53.50
2022-10-15T05:15:00.236Z,53.50
2022-10-15T05:17:52.928Z,53.50
2022-10-15T05:20:46.489Z,53.50
2022-10-15T05:23:39.498Z,53.50
2022-10-15T05:26:33.358Z,53.50
2022-10-15T05:29:26.242Z,53.50
2022-10-15T05:35:16.959Z,53.50
2022-10-15T05:38:10.378Z,53.50
2022-10-15T05:41:03.244Z,53.50
2022-10-15T05:43:58.363Z,53.50
2022-10-15T05:46:51.217Z,53.50
2022-10-15T05:49:45.607Z,53.50
2022-10-15T05:52:38.226Z,53.50
2022-10-15T05:55:31.991Z,53.50
2022-10-15T05:58:25.219Z,53.50
2022-10-15T06:01:18.022Z,53.50
2022-10-15T06:04:11.939Z,53.50
2022-10-15T06:07:06.704Z,53.50
2022-10-15T06:10:00.334Z,53.50
2022-10-15T06:12:53.378Z,53.50
2022-10-15T06:15:47.180Z,53.50
2022-10-15T06:18:41.210Z,53.50
2022-10-15T06:21:34.399Z,53.50
2022-10-15T06:24:28.246Z,53.50
2022-10-15T06:27:20.927Z,53.50
2022-10-15T06:30:14.311Z,53.50
2022-10-15T06:33:07.304Z,53.50
2022-10-15T06:36:03.304Z,53.50
2022-10-15T06:38:56.507Z,53.50
2022-10-15T06:41:50.520Z,53.50
2022-10-15T06:44:43.412Z,53.50
2022-10-15T06:47:36.240Z,53.50
2022-10-15T06:50:29.322Z,53.50
2022-10-15T06:53:23.009Z,53.50
2022-10-15T06:56:15.880Z,53.50
2022-10-15T06:59:10.738Z,53.50
2022-10-15T07:02:04.576Z,53.50
2022-10-15T07:04:58.092Z,53.50
2022-10-15T07:07:54.566Z,53.50
2022-10-15T07:10:47.277Z,53.50
2022-10-15T07:13:40.439Z,53.50
2022-10-15T07:16:34.621Z,53.50
2022-10-15T07:19:28.324Z,53.50
2022-10-15T07:22:21.415Z,53.50
2022-10-15T07:25:14.052Z,53.50
2022-10-15T07:28:07.691Z,53.50
2022-10-15T07:31:02.780Z,53.50
2022-10-15T07:33:57.900Z,53.50
2022-10-15T07:36:51.322Z,53.50
2022-10-15T07:39:44.222Z,53.50
2022-10-15T07:42:37.471Z,53.50
2022-10-15T07:45:30.268Z,53.50
2022-10-15T07:48:23.745Z,53.50
2022-10-15T07:51:18.734Z,53.50
2022-10-15T07:54:12.476Z,53.50
2022-10-15T07:57:06.973Z,53.50
2022-10-15T08:00:00.272Z,53.50
2022-10-15T08:02:53.689Z,53.60
2022-10-15T08:05:46.399Z,53.60
2022-10-15T08:08:40.946Z,53.60
2022-10-15T08:11:34.370Z,53.60
2022-10-15T08:14:27.753Z,53.60
2022-10-15T08:17:21.258Z,53.60
2022-10-15T08:20:14.672Z,53.60
2022-10-15T08:23:14.319Z,53.70
2022-10-15T08:26:08.766Z,53.70
2022-10-15T08:29:02.933Z,53.70
2022-10-15T08:31:56.486Z,53.70
2022-10-15T08:34:49.438Z,53.70
2022-10-15T08:37:42.476Z,53.70
2022-10-15T08:40:35.534Z,53.70
2022-10-15T08:43:36.202Z,53.70
2022-10-15T08:46:34.819Z,53.70
2022-10-15T08:49:44.708Z,53.80
2022-10-15T08:52:43.462Z,53.80
2022-10-15T08:55:40.696Z,53.80
2022-10-15T08:58:47.031Z,53.80
2022-10-15T09:01:48.328Z,53.80
2022-10-15T09:04:50.460Z,53.80
2022-10-15T09:07:50.838Z,53.90
2022-10-15T09:10:51.132Z,53.80
2022-10-15T09:13:47.557Z,53.80
2022-10-15T09:16:42.927Z,53.80
2022-10-15T09:19:39.127Z,53.80
2022-10-15T09:22:34.539Z,53.80
2022-10-15T09:25:33.329Z,53.80
2022-10-15T09:28:34.093Z,53.80
2022-10-15T09:31:35.060Z,53.80
2022-10-15T09:34:35.170Z,53.80
2022-10-15T09:37:32.524Z,53.90
2022-10-15T09:40:40.591Z,54.00
2022-10-15T09:43:37.181Z,54.10
2022-10-15T09:46:31.601Z,54.10
2022-10-15T09:49:26.689Z,54.10
2022-10-15T09:52:28.241Z,54.10
2022-10-15T09:55:36.014Z,54.10
2022-10-15T09:58:34.438Z,54.10
2022-10-15T10:01:29.381Z,54.10
2022-10-15T10:04:29.188Z,54.10
2022-10-15T10:07:32.546Z,54.10
2022-10-15T10:10:28.087Z,54.30
2022-10-15T10:13:25.354Z,54.20
2022-10-15T10:16:21.466Z,54.20
2022-10-15T10:19:19.315Z,54.60
2022-10-15T10:22:19.972Z,54.50
2022-10-15T10:25:33.608Z,55.10
2022-10-15T10:28:31.064Z,54.40
2022-10-15T10:31:31.180Z,54.40
2022-10-15T10:34:32.705Z,54.30
2022-10-15T10:37:27.760Z,54.30
2022-10-15T10:40:27.995Z,54.30
2022-10-15T10:43:26.790Z,54.30
2022-10-15T10:46:22.455Z,54.30
2022-10-15T10:49:32.630Z,54.30
2022-10-15T10:52:29.371Z,54.20
2022-10-15T10:55:25.200Z,54.20
2022-10-15T10:58:23.532Z,54.20
2022-10-15T11:01:19.868Z,54.20
2022-10-15T11:04:18.578Z,54.20
2022-10-15T11:07:21.775Z,54.10
2022-10-15T11:10:23.346Z,54.10
2022-10-15T11:13:33.418Z,54.10
2022-10-15T11:16:35.941Z,54.10
2022-10-15T11:20:05.864Z,54.10
2022-10-15T11:23:01.711Z,54.10
2022-10-15T11:26:04.311Z,54.10
2022-10-15T11:29:13.294Z,54.10
2022-10-15T11:32:21.136Z,54.10
2022-10-15T11:35:51.697Z,54.50
2022-10-15T11:38:52.135Z,54.70
2022-10-15T11:41:53.851Z,54.50
2022-10-15T11:45:17.140Z,54.50
2022-10-15T11:48:17.252Z,54.40
2022-10-15T11:51:18.685Z,54.40
2022-10-15T11:54:21.918Z,54.40
2022-10-15T11:57:19.899Z,54.40
2022-10-15T12:00:23.765Z,54.30
2022-10-15T12:03:20.429Z,54.30
2022-10-15T12:06:20.019Z,54.30
2022-10-15T12:09:20.490Z,54.30
2022-10-15T12:12:26.899Z,54.30
2022-10-15T12:15:28.876Z,54.20
2022-10-15T12:18:29.018Z,54.30
2022-10-15T12:21:39.122Z,54.20
2022-10-15T12:24:53.728Z,54.80
2022-10-15T12:28:00.962Z,54.10
2022-10-15T12:30:56.338Z,54.10
2022-10-15T12:33:52.054Z,54.10
2022-10-15T12:36:47.540Z,54.00
2022-10-15T12:39:52.186Z,54.10
2022-10-15T12:42:51.892Z,54.10
2022-10-15T12:45:52.563Z,54.00
2022-10-15T12:48:47.932Z,54.00
2022-10-15T12:51:41.765Z,54.00
2022-10-15T12:54:40.371Z,54.00
2022-10-15T12:57:56.968Z,54.00
2022-10-15T13:00:50.449Z,54.00
2022-10-15T13:03:52.989Z,54.10
2022-10-15T13:06:47.211Z,54.10
2022-10-15T13:09:42.964Z,54.00
2022-10-15T13:12:36.672Z,54.00
2022-10-15T13:15:32.620Z,54.00
2022-10-15T13:18:26.596Z,54.10
2022-10-15T13:21:19.584Z,54.00
2022-10-15T13:24:12.885Z,54.10
2022-10-15T13:27:15.511Z,54.00
2022-10-15T13:30:14.140Z,54.10
2022-10-15T13:33:11.293Z,54.10
2022-10-15T13:36:09.352Z,54.10
2022-10-15T13:39:06.456Z,54.00
2022-10-15T13:42:11.447Z,54.00
2022-10-15T13:45:16.236Z,54.00
2022-10-15T13:48:13.900Z,54.00
2022-10-15T13:51:07.949Z,54.00
2022-10-15T13:54:01.973Z,54.60
2022-10-15T13:56:57.916Z,54.00
2022-10-15T13:59:50.912Z,54.00
2022-10-15T14:02:43.742Z,54.00
2022-10-15T14:05:37.952Z,54.00
2022-10-15T14:08:36.197Z,54.10
2022-10-15T14:11:30.834Z,54.10
2022-10-15T14:14:31.832Z,54.00
2022-10-15T14:17:27.263Z,54.00
2022-10-15T14:20:27.330Z,54.10
2022-10-15T14:23:25.892Z,54.10
2022-10-15T14:26:25.225Z,54.10
2022-10-15T14:29:23.333Z,54.10
2022-10-15T14:32:26.398Z,54.10
2022-10-15T14:35:30.472Z,54.10
2022-10-15T14:38:27.305Z,54.10
2022-10-15T14:41:30.807Z,54.10
2022-10-15T14:44:23.826Z,54.10
2022-10-15T14:47:22.505Z,54.10
2022-10-15T14:50:16.349Z,54.10
2022-10-15T14:53:15.923Z,54.10
2022-10-15T14:56:16.788Z,54.10
2022-10-15T14:59:17.879Z,54.10
2022-10-15T15:02:16.447Z,54.10
2022-10-15T15:05:20.696Z,54.10
2022-10-15T15:08:14.096Z,54.10
2022-10-15T15:11:13.787Z,54.00
2022-10-15T15:14:23.214Z,54.00
2022-10-15T15:17:19.718Z,54.00
2022-10-15T15:20:13.318Z,54.00
2022-10-15T15:23:07.188Z,54.00
2022-10-15T15:26:01.237Z,54.00
2022-10-15T15:28:55.995Z,54.00
2022-10-15T15:31:49.160Z,54.00
2022-10-15T15:34:42.490Z,54.00
2022-10-15T15:37:35.806Z,54.10
2022-10-15T15:40:28.931Z,54.00
2022-10-15T15:43:21.884Z,54.00
2022-10-15T15:46:16.265Z,54.00
2022-10-15T15:49:10.609Z,54.10
2022-10-15T15:52:04.447Z,54.00
2022-10-15T15:54:57.761Z,54.00
2022-10-15T15:57:51.197Z,54.00
2022-10-15T16:00:44.796Z,54.00
2022-10-15T16:03:39.087Z,54.00
2022-10-15T16:06:31.605Z,54.00
2022-10-15T16:09:24.647Z,54.00
2022-10-15T16:12:17.771Z,54.00
2022-10-15T16:15:14.592Z,54.00
2022-10-15T16:18:09.285Z,54.00
2022-10-15T16:21:04.482Z,54.00
2022-10-15T16:23:57.563Z,54.00
2022-10-15T16:26:50.827Z,54.00
2022-10-15T16:29:43.460Z,54.00
2022-10-15T16:32:37.050Z,54.00
2022-10-15T16:35:29.518Z,54.00
2022-10-15T16:38:24.016Z,54.00
2022-10-15T16:41:19.638Z,54.00
2022-10-15T16:44:12.835Z,54.00
2022-10-15T16:47:05.536Z,54.00
2022-10-15T16:49:58.838Z,54.00
2022-10-15T16:52:52.114Z,54.00
2022-10-15T16:55:46.095Z,54.00
2022-10-15T16:58:38.715Z,54.00
2022-10-15T17:01:32.108Z,54.00
2022-10-15T17:04:24.942Z,54.00
2022-10-15T17:07:18.079Z,54.00
2022-10-15T17:10:13.982Z,54.00
2022-10-15T17:13:08.947Z,54.00
2022-10-15T17:16:10.068Z,54.00
2022-10-15T17:19:02.986Z,54.00
2022-10-15T17:21:56.176Z,54.00
2022-10-15T17:24:50.266Z,54.00
2022-10-15T17:27:43.529Z,54.00
2022-10-15T17:30:38.741Z,54.00
2022-10-15T17:33:31.982Z,54.00
2022-10-15T17:36:25.557Z,54.00
2022-10-15T17:39:20.410Z,54.00
2022-10-15T17:42:15.679Z,54.00
2022-10-15T17:45:10.485Z,54.00
2022-10-15T17:48:05.265Z,54.00
2022-10-15T17:51:00.413Z,54.00
2022-10-15T17:53:54.319Z,54.10
2022-10-15T17:56:48.586Z,54.00
2022-10-15T17:59:41.853Z,54.00
2022-10-15T18:02:35.191Z,54.00
2022-10-15T18:05:30.007Z,54.10
2022-10-15T18:08:22.799Z,54.00
2022-10-15T18:11:18.514Z,54.00
2022-10-15T18:14:11.998Z,54.00
2022-10-15T18:17:05.898Z,54.00
2022-10-15T18:19:58.757Z,54.10
2022-10-15T18:22:53.680Z,54.00
2022-10-15T18:25:46.613Z,54.10
2022-10-15T18:28:42.641Z,54.10
2022-10-15T18:31:35.999Z,54.00
2022-10-15T18:34:30.158Z,54.00
2022-10-15T18:37:23.322Z,54.00
2022-10-15T18:40:18.276Z,54.00
2022-10-15T18:43:12.455Z,54.00
2022-10-15T18:46:06.884Z,54.00
2022-10-15T18:49:00.433Z,54.00
2022-10-15T18:51:54.118Z,54.00
2022-10-15T18:54:46.804Z,54.00
2022-10-15T18:57:41.201Z,54.00
2022-10-15T19:00:35.608Z,54.00
2022-10-15T19:03:28.715Z,54.00
2022-10-15T19:06:22.532Z,54.00
2022-10-15T19:09:18.201Z,54.00
2022-10-15T19:12:10.917Z,54.00
2022-10-15T19:15:06.248Z,54.00
2022-10-15T19:17:59.868Z,54.00
2022-10-15T19:20:52.819Z,54.00
2022-10-15T19:23:45.694Z,54.00
2022-10-15T19:26:38.867Z,54.00
2022-10-15T19:29:35.104Z,54.00
2022-10-15T19:32:30.268Z,54.00
2022-10-15T19:35:23.978Z,54.00
2022-10-15T19:38:17.015Z,54.00
2022-10-15T19:41:09.757Z,54.00
2022-10-15T19:44:03.746Z,54.00
2022-10-15T19:46:57.822Z,54.00
2022-10-15T19:49:52.209Z,54.00
2022-10-15T19:52:45.180Z,54.00
2022-10-15T19:55:38.203Z,54.00
2022-10-15T19:58:31.649Z,54.00
2022-10-15T20:01:25.160Z,54.00
2022-10-15T20:04:17.835Z,54.00
2022-10-15T20:07:12.343Z,54.00
2022-10-15T20:10:07.582Z,54.00
2022-10-15T20:13:00.742Z,54.00
2022-10-15T20:15:55.110Z,54.00
2022-10-15T20:18:47.825Z,54.00
2022-10-15T20:21:43.645Z,54.00
2022-10-15T20:24:38.259Z,54.00
2022-10-15T20:27:31.053Z,54.20
2022-10-15T20:30:23.995Z,54.00
2022-10-15T20:33:17.054Z,54.00
2022-10-15T20:36:14.674Z,54.00
2022-10-15T20:39:08.030Z,54.00
2022-10-15T20:42:02.329Z,54.00
2022-10-15T20:44:56.157Z,54.00
2022-10-15T20:47:52.012Z,54.00
2022-10-15T20:50:45.686Z,54.00
2022-10-15T20:53:39.212Z,54.00
2022-10-15T20:56:31.731Z,54.00
2022-10-15T20:59:29.412Z,54.00
2022-10-15T21:02:24.475Z,54.00
2022-10-15T21:05:17.902Z,54.00
2022-10-15T21:08:11.256Z,54.00
2022-10-15T21:11:04.815Z,54.00
2022-10-15T21:13:57.878Z,54.00
2022-10-15T21:16:52.446Z,54.00
2022-10-15T21:19:49.043Z,54.00
2022-10-15T21:22:44.772Z,54.00
2022-10-15T21:28:32.124Z,54.00
2022-10-15T21:31:25.745Z,54.00
2022-10-15T21:34:22.586Z,54.00
2022-10-15T21:37:16.065Z,54.00
2022-10-15T21:40:10.600Z,54.00
2022-10-15T21:43:04.282Z,54.00
2022-10-15T21:45:56.979Z,54.00
2022-10-15T21:48:50.827Z,54.00
2022-10-15T21:51:45.265Z,54.00
2022-10-15T21:54:38.119Z,54.60
2022-10-15T21:57:30.929Z,54.60
2022-10-15T22:00:26.172Z,54.00
2022-10-15T22:03:18.978Z,54.00
2022-10-15T22:06:12.694Z,54.00
2022-10-15T22:09:08.490Z,54.00
2022-10-15T22:12:01.715Z,54.00
2022-10-15T22:14:55.006Z,54.00
2022-10-15T22:17:47.846Z,54.00
2022-10-15T22:23:38.702Z,54.00
2022-10-15T22:26:35.371Z,54.00
2022-10-15T22:29:32.984Z,54.00
2022-10-15T22:32:28.222Z,53.90
2022-10-15T22:35:21.520Z,54.00
2022-10-15T22:38:15.112Z,54.00
2022-10-15T22:41:09.789Z,54.00
2022-10-15T22:44:04.794Z,54.00
2022-10-15T22:46:58.407Z,54.00
2022-10-15T22:49:51.083Z,54.00
2022-10-15T22:52:44.017Z,54.00
2022-10-15T22:55:37.146Z,54.00
2022-10-15T22:58:32.263Z,54.00
2022-10-15T23:01:27.941Z,53.90
2022-10-15T23:04:21.321Z,54.00
2022-10-15T23:07:14.170Z,53.90
2022-10-15T23:10:08.014Z,54.00
2022-10-15T23:13:01.053Z,54.00
2022-10-15T23:15:54.046Z,54.00
2022-10-15T23:18:52.816Z,54.00
2022-10-15T23:21:48.220Z,54.00
2022-10-15T23:24:40.995Z,54.00
2022-10-15T23:27:34.354Z,53.90
2022-10-15T23:30:27.019Z,54.00
2022-10-15T23:33:19.956Z,54.00
2022-10-15T23:36:14.959Z,54.00
2022-10-15T23:39:08.696Z,54.00
2022-10-15T23:42:02.184Z,54.00
2022-10-15T23:44:55.324Z,54.00
2022-10-15T23:47:47.975Z,54.00
2022-10-15T23:50:41.154Z,53.90
2022-10-15T23:53:35.487Z,54.00
2022-10-15T23:56:29.998Z,53.90
2022-10-15T23:59:22.814Z,54.00
